Terminal Aerodrome Forecast
Issued by NWS Sioux Falls, SD

Home | Current Version | Previous Version | Text Only | Print | Product List | Glossary Off
Versions: 1 2 3 4 5 6 7 8 9 10 11 12 13 14 15 16 17 18 19 20

190
FTUS43 KFSD 172320
TAFFSD
TAF
KFSD 172320Z 1800/1824 15004KT P6SM BKN100
     FM180600 15005KT P6SM VCSH BKN090
     FM180900 14006KT P6SM -SHRA BKN050
     FM181200 14006KT P6SM -SHRA OVC015
     FM181500 13007KT P6SM VCSH OVC010
     FM181800 14008KT P6SM BKN015
     FM182100 14008KT P6SM SCT025=

USA.gov is the U.S. government's official web portal to all federal, state and local government web resources and services.